createdAt,value
2023-01-19T00:01:00.925Z,1.30
2023-01-19T00:04:44.503Z,1.30
2023-01-19T00:08:28.205Z,1.20
2023-01-19T00:12:11.594Z,1.30
2023-01-19T00:15:55.649Z,1.20
2023-01-19T00:19:38.750Z,1.20
2023-01-19T00:23:21.576Z,1.20
2023-01-19T00:27:07.553Z,1.20
2023-01-19T00:30:51.516Z,1.20
2023-01-19T00:34:39.868Z,1.20
2023-01-19T00:38:23.636Z,1.20
2023-01-19T00:42:24.376Z,1.20
2023-01-19T00:46:06.602Z,1.20
2023-01-19T00:49:49.297Z,1.30
2023-01-19T00:53:32.923Z,1.20
2023-01-19T00:57:16.594Z,1.20
2023-01-19T01:01:06.023Z,1.20
2023-01-19T01:04:55.341Z,1.20
2023-01-19T01:08:38.328Z,1.20
2023-01-19T01:12:21.876Z,1.20
2023-01-19T01:16:05.853Z,1.20
2023-01-19T01:19:48.332Z,1.10
2023-01-19T01:23:30.611Z,1.10
2023-01-19T01:27:22.458Z,1.10
2023-01-19T01:31:04.748Z,1.00
2023-01-19T01:34:46.771Z,1.00
2023-01-19T01:38:29.829Z,1.00
2023-01-19T01:42:17.908Z,1.00
2023-01-19T01:46:00.169Z,1.00
2023-01-19T01:49:42.582Z,1.00
2023-01-19T01:53:24.968Z,1.00
2023-01-19T01:57:13.039Z,1.00
2023-01-19T02:01:14.378Z,1.00
2023-01-19T02:05:04.900Z,0.90
2023-01-19T02:09:12.090Z,0.90
2023-01-19T02:13:14.273Z,0.80
2023-01-19T02:16:59.026Z,0.80
2023-01-19T02:20:45.806Z,0.80
2023-01-19T02:24:29.390Z,0.80
2023-01-19T02:28:11.808Z,0.80
2023-01-19T02:31:55.992Z,0.80
2023-01-19T02:35:41.591Z,0.80
2023-01-19T02:39:27.156Z,0.80
2023-01-19T02:43:10.773Z,0.80
2023-01-19T02:46:57.054Z,0.80
2023-01-19T02:50:46.886Z,0.80
2023-01-19T02:54:47.394Z,0.80
2023-01-19T02:58:29.592Z,0.80
2023-01-19T03:02:19.933Z,0.90
2023-01-19T03:06:28.248Z,0.90
2023-01-19T03:10:32.837Z,0.90
2023-01-19T03:14:18.361Z,0.90
2023-01-19T03:18:01.095Z,1.00
2023-01-19T03:21:45.833Z,1.00
2023-01-19T03:25:30.997Z,1.00
2023-01-19T03:29:14.635Z,0.90
2023-01-19T03:33:07.532Z,0.90
2023-01-19T03:36:52.963Z,0.90
2023-01-19T03:40:37.612Z,0.90
2023-01-19T03:44:21.165Z,0.90
2023-01-19T03:48:03.519Z,0.90
2023-01-19T03:51:46.033Z,0.90
2023-01-19T03:55:28.435Z,0.90
2023-01-19T03:59:10.511Z,0.90
2023-01-19T04:02:52.603Z,0.80
2023-01-19T04:06:35.535Z,0.80
2023-01-19T04:10:21.371Z,0.70
2023-01-19T04:14:07.462Z,0.70
2023-01-19T04:17:50.855Z,0.60
2023-01-19T04:21:35.942Z,0.60
2023-01-19T04:25:17.798Z,0.60
2023-01-19T04:28:59.958Z,0.60
2023-01-19T04:32:41.851Z,0.50
2023-01-19T04:36:23.897Z,0.60
2023-01-19T04:40:08.404Z,0.60
2023-01-19T04:43:54.445Z,0.60
2023-01-19T04:47:37.734Z,0.60
2023-01-19T04:51:20.021Z,0.60
2023-01-19T04:55:03.270Z,0.60
2023-01-19T04:58:46.458Z,0.70
2023-01-19T05:02:28.654Z,0.70
2023-01-19T05:06:10.662Z,0.70
2023-01-19T05:09:52.768Z,0.70
2023-01-19T05:13:36.405Z,0.60
2023-01-19T05:17:19.717Z,0.60
2023-01-19T05:21:02.477Z,0.70
2023-01-19T05:24:44.315Z,0.70
2023-01-19T05:28:26.746Z,0.70
2023-01-19T05:32:08.645Z,0.70
2023-01-19T05:35:51.223Z,0.70
2023-01-19T05:39:33.871Z,0.70
2023-01-19T05:43:16.730Z,0.70
2023-01-19T05:46:58.728Z,0.70
2023-01-19T05:50:40.950Z,0.80
2023-01-19T05:54:23.456Z,0.80
2023-01-19T05:58:07.140Z,0.80
2023-01-19T06:01:49.061Z,0.80
2023-01-19T06:05:31.636Z,0.80
2023-01-19T06:09:13.606Z,0.80
2023-01-19T06:12:55.497Z,0.80
2023-01-19T06:16:39.439Z,0.80
2023-01-19T06:20:22.714Z,0.80
2023-01-19T06:24:06.089Z,0.80
2023-01-19T06:27:48.438Z,0.90
2023-01-19T06:31:32.608Z,0.90
2023-01-19T06:35:17.387Z,0.90
2023-01-19T06:38:59.385Z,0.90
2023-01-19T06:42:42.226Z,0.90
2023-01-19T06:46:24.044Z,0.90
2023-01-19T06:50:06.237Z,0.90
2023-01-19T06:53:48.270Z,0.90
2023-01-19T06:57:30.139Z,1.00
2023-01-19T07:01:14.484Z,1.00
2023-01-19T07:04:57.869Z,1.00
2023-01-19T07:08:40.757Z,1.00
2023-01-19T07:12:24.647Z,1.00
2023-01-19T07:16:08.096Z,1.00
2023-01-19T07:19:52.588Z,1.10
2023-01-19T07:23:38.149Z,1.10
2023-01-19T07:27:20.289Z,1.20
2023-01-19T07:31:03.996Z,1.20
2023-01-19T07:34:46.157Z,1.20
2023-01-19T07:38:28.587Z,1.20
2023-01-19T07:42:13.165Z,1.20
2023-01-19T07:46:02.536Z,1.20
2023-01-19T07:49:48.814Z,1.30
2023-01-19T07:53:32.446Z,1.20
2023-01-19T07:57:14.572Z,1.20
2023-01-19T08:00:58.219Z,1.20
2023-01-19T08:04:40.394Z,1.20
2023-01-19T08:08:31.768Z,1.20
2023-01-19T08:12:18.431Z,1.20
2023-01-19T08:16:01.701Z,1.20
2023-01-19T08:19:43.629Z,1.20
2023-01-19T08:23:25.560Z,1.10
2023-01-19T08:27:10.072Z,1.10
2023-01-19T08:30:56.704Z,1.20
2023-01-19T08:34:38.815Z,1.10
2023-01-19T08:38:20.925Z,1.20
2023-01-19T08:42:11.675Z,1.20
2023-01-19T08:45:54.047Z,1.20
2023-01-19T08:49:37.432Z,1.20
2023-01-19T08:53:23.296Z,1.20
2023-01-19T08:57:06.148Z,1.20
2023-01-19T09:00:52.773Z,1.30
2023-01-19T09:04:35.596Z,1.40
2023-01-19T09:08:17.718Z,1.40
2023-01-19T09:11:59.884Z,1.40
2023-01-19T09:15:42.570Z,1.40
2023-01-19T09:19:27.922Z,1.40
2023-01-19T09:23:14.840Z,1.50
2023-01-19T09:26:57.754Z,1.70
2023-01-19T09:30:40.564Z,1.90
2023-01-19T09:34:23.746Z,2.20
2023-01-19T09:38:07.622Z,2.60
2023-01-19T09:41:56.623Z,3.10
2023-01-19T09:45:48.169Z,3.70
2023-01-19T09:49:46.267Z,4.40
2023-01-19T09:53:41.663Z,5.10
2023-01-19T09:57:27.547Z,6.00
2023-01-19T10:01:18.695Z,6.70
2023-01-19T10:05:06.744Z,7.40
2023-01-19T10:08:57.969Z,8.00
2023-01-19T10:12:40.246Z,8.70
2023-01-19T10:16:52.002Z,9.40
2023-01-19T10:20:36.959Z,10.00
2023-01-19T10:24:26.589Z,10.20
2023-01-19T10:28:18.241Z,9.70
2023-01-19T10:32:20.150Z,9.00
2023-01-19T10:36:05.716Z,8.10
2023-01-19T10:39:52.282Z,7.50
2023-01-19T10:43:34.135Z,7.00
2023-01-19T10:47:19.611Z,6.60
2023-01-19T10:51:02.783Z,6.20
2023-01-19T10:54:44.897Z,6.00
2023-01-19T10:58:28.610Z,5.80
2023-01-19T11:02:20.791Z,5.60
2023-01-19T11:06:15.979Z,5.50
2023-01-19T11:10:16.379Z,5.50
2023-01-19T11:14:10.230Z,6.20
2023-01-19T11:17:53.735Z,7.70
2023-01-19T11:21:35.572Z,9.10
2023-01-19T11:25:26.926Z,10.30
2023-01-19T11:29:16.814Z,11.30
2023-01-19T11:32:58.772Z,12.20
2023-01-19T11:36:47.933Z,13.00
2023-01-19T11:40:32.354Z,13.00
2023-01-19T11:44:29.502Z,12.20
2023-01-19T11:48:18.287Z,11.20
2023-01-19T11:52:22.999Z,10.30
2023-01-19T11:56:12.274Z,9.80
2023-01-19T11:59:54.540Z,10.50
2023-01-19T12:03:55.633Z,11.50
2023-01-19T12:07:41.470Z,12.50
2023-01-19T12:11:26.706Z,13.50
2023-01-19T12:15:27.808Z,14.40
2023-01-19T12:19:22.626Z,15.10
2023-01-19T12:23:26.467Z,15.80
2023-01-19T12:27:20.519Z,16.40
2023-01-19T12:31:03.702Z,16.70
2023-01-19T12:39:22.535Z,17.20
2023-01-19T12:43:06.056Z,17.50
2023-01-19T12:46:55.216Z,17.60
2023-01-19T12:50:38.115Z,17.90
2023-01-19T12:54:27.676Z,18.10
2023-01-19T12:58:23.283Z,18.30
2023-01-19T13:06:49.256Z,18.50
2023-01-19T13:10:51.391Z,18.50
2023-01-19T13:14:37.468Z,18.60
2023-01-19T13:27:04.415Z,18.40
2023-01-19T13:31:11.306Z,18.40
2023-01-19T13:35:03.891Z,18.40
2023-01-19T13:43:37.867Z,18.20
2023-01-19T13:47:53.419Z,18.10
2023-01-19T13:51:36.127Z,18.00
2023-01-19T13:55:21.266Z,17.80
2023-01-19T13:59:26.796Z,17.60
2023-01-19T14:03:16.510Z,17.40
2023-01-19T14:07:07.371Z,17.10
2023-01-19T14:10:53.001Z,17.00
2023-01-19T14:14:42.344Z,16.80
2023-01-19T14:18:57.343Z,16.80
2023-01-19T14:22:48.851Z,16.90
2023-01-19T14:26:49.219Z,17.00
2023-01-19T14:30:32.922Z,17.10
2023-01-19T14:34:33.988Z,17.00
2023-01-19T14:38:16.232Z,17.00
2023-01-19T14:41:59.797Z,17.00
2023-01-19T14:45:51.132Z,17.00
2023-01-19T14:49:35.925Z,16.90
2023-01-19T14:53:21.702Z,16.80
2023-01-19T14:57:07.006Z,16.40
2023-01-19T15:00:50.391Z,15.70
2023-01-19T15:04:32.917Z,15.00
2023-01-19T15:08:27.158Z,14.10
2023-01-19T15:12:10.980Z,13.00
2023-01-19T15:15:53.291Z,12.00
2023-01-19T15:19:36.397Z,11.20
2023-01-19T15:23:19.529Z,10.50
2023-01-19T15:27:02.694Z,10.00
2023-01-19T15:30:45.095Z,9.60
2023-01-19T15:34:27.345Z,9.20
2023-01-19T15:38:09.881Z,9.00
2023-01-19T15:41:53.354Z,8.70
2023-01-19T15:45:48.142Z,8.50
2023-01-19T15:49:32.691Z,8.20
2023-01-19T15:53:16.092Z,8.00
2023-01-19T16:01:03.963Z,7.70
2023-01-19T16:04:49.016Z,7.50
2023-01-19T16:08:32.109Z,7.40
2023-01-19T16:12:27.065Z,7.20
2023-01-19T16:16:24.528Z,7.10
2023-01-19T16:24:13.740Z,6.90
2023-01-19T16:27:58.920Z,6.70
2023-01-19T16:39:58.490Z,6.40
2023-01-19T16:48:08.641Z,6.10
2023-01-19T16:51:55.165Z,6.00
2023-01-19T17:00:03.731Z,5.90
2023-01-19T17:03:50.491Z,5.80
2023-01-19T17:07:47.460Z,5.70
2023-01-19T17:19:29.626Z,5.60
2023-01-19T17:23:18.145Z,5.50
2023-01-19T17:39:20.790Z,5.00
2023-01-19T17:43:19.425Z,5.00
2023-01-19T17:51:15.936Z,4.80
2023-01-19T17:55:06.613Z,4.80
2023-01-19T18:02:55.789Z,4.60
2023-01-19T18:06:52.201Z,4.50
2023-01-19T18:18:35.018Z,4.30
2023-01-19T18:22:40.603Z,4.20
2023-01-19T18:30:54.588Z,4.10
2023-01-19T18:42:44.766Z,4.00
2023-01-19T18:46:38.325Z,3.90
2023-01-19T19:03:03.421Z,3.70
2023-01-19T19:07:14.458Z,3.60
2023-01-19T19:15:01.021Z,3.50
2023-01-19T19:19:02.401Z,3.50
2023-01-19T19:22:45.647Z,3.50
2023-01-19T19:30:46.281Z,3.50
2023-01-19T19:34:42.571Z,3.40
2023-01-19T19:46:55.051Z,3.30
2023-01-19T19:51:17.180Z,3.20
2023-01-19T19:59:28.145Z,3.20
2023-01-19T20:07:31.752Z,3.00
2023-01-19T20:11:24.892Z,3.00
2023-01-19T20:15:16.368Z,3.00
2023-01-19T20:22:56.442Z,2.90
2023-01-19T20:26:45.954Z,2.80
2023-01-19T20:34:33.559Z,2.80
2023-01-19T20:38:28.611Z,2.70
2023-01-19T20:42:17.633Z,2.70
2023-01-19T20:46:07.618Z,2.60
2023-01-19T20:49:52.540Z,2.50
2023-01-19T20:57:21.483Z,2.40
2023-01-19T21:01:14.302Z,2.40
2023-01-19T21:04:58.671Z,2.40
2023-01-19T21:08:52.702Z,2.30
2023-01-19T21:12:35.841Z,2.20
2023-01-19T21:16:18.029Z,2.10
2023-01-19T21:20:03.161Z,2.10
2023-01-19T21:23:54.324Z,2.00
2023-01-19T21:27:51.374Z,2.00
2023-01-19T21:31:35.528Z,2.00
2023-01-19T21:35:17.665Z,1.90
2023-01-19T21:39:02.612Z,1.90
2023-01-19T21:42:48.670Z,1.80
2023-01-19T21:46:31.640Z,1.70
2023-01-19T21:50:40.492Z,1.70
2023-01-19T21:54:23.707Z,1.70
2023-01-19T21:58:27.719Z,1.70
2023-01-19T22:02:26.806Z,1.60
2023-01-19T22:06:22.997Z,1.60
2023-01-19T22:10:07.504Z,1.50
2023-01-19T22:21:33.007Z,1.50
2023-01-19T22:25:15.579Z,1.40
2023-01-19T22:29:00.616Z,1.40
2023-01-19T22:32:47.540Z,1.30
2023-01-19T22:36:34.628Z,1.20
2023-01-19T22:40:17.374Z,1.20
2023-01-19T22:44:00.487Z,1.20
2023-01-19T22:47:42.584Z,1.10
2023-01-19T22:51:25.625Z,1.10
2023-01-19T22:55:07.861Z,1.10
2023-01-19T22:58:50.568Z,1.00
2023-01-19T23:02:32.788Z,1.00
2023-01-19T23:06:16.345Z,1.00
2023-01-19T23:09:58.609Z,1.00
2023-01-19T23:13:41.991Z,1.00
2023-01-19T23:17:28.350Z,1.00
2023-01-19T23:21:12.141Z,1.00
2023-01-19T23:24:59.215Z,1.10
2023-01-19T23:28:42.533Z,1.10
2023-01-19T23:32:25.780Z,1.10
2023-01-19T23:36:08.214Z,1.10
2023-01-19T23:39:50.065Z,1.00
2023-01-19T23:43:34.972Z,1.00
2023-01-19T23:47:18.384Z,1.00
2023-01-19T23:51:14.286Z,1.00
2023-01-19T23:54:57.967Z,1.00
2023-01-19T23:58:45.277Z,0.90
